createdAt,value
2022-09-12T06:32:47.073Z,16.50
2022-09-12T06:35:15.216Z,16.50
2022-09-12T06:37:45.666Z,16.60
2022-09-12T06:40:13.777Z,16.70
2022-09-12T06:42:41.821Z,16.80
2022-09-12T06:45:11.530Z,17.00
2022-09-12T06:47:39.537Z,17.00
2022-09-12T06:50:10.121Z,17.10
2022-09-12T06:52:38.268Z,17.20
2022-09-12T06:55:07.406Z,17.30
2022-09-12T06:57:36.896Z,17.40
2022-09-12T07:00:05.641Z,17.50
2022-09-12T07:02:33.728Z,17.50
2022-09-12T07:05:01.686Z,17.60
2022-09-12T07:07:34.312Z,17.60
2022-09-12T07:10:02.330Z,17.70
2022-09-12T07:12:30.585Z,17.80
2022-09-12T07:14:58.533Z,17.90
2022-09-12T07:17:26.576Z,17.90
2022-09-12T07:19:54.577Z,18.00
2022-09-12T07:22:22.568Z,18.10
2022-09-12T07:24:52.993Z,18.20
2022-09-12T07:27:20.995Z,18.20
2022-09-12T07:29:48.976Z,18.30
2022-09-12T07:32:17.527Z,18.40
2022-09-12T07:34:46.903Z,18.40
2022-09-12T07:37:15.036Z,18.50
2022-09-12T07:39:43.134Z,18.70
2022-09-12T07:42:13.255Z,18.80
2022-09-12T07:44:41.541Z,18.90
2022-09-12T07:47:09.566Z,19.00
2022-09-12T07:49:37.716Z,19.10
2022-09-12T07:52:05.818Z,19.20
2022-09-12T07:54:34.779Z,19.30
2022-09-12T07:57:02.816Z,19.50
2022-09-12T07:59:51.583Z,19.70
2022-09-12T08:02:20.471Z,19.70
2022-09-12T08:04:49.261Z,19.90
2022-09-12T08:07:18.420Z,20.00
2022-09-12T08:09:46.936Z,20.10
2022-09-12T08:12:15.066Z,20.20
2022-09-12T08:14:44.654Z,20.30
2022-09-12T08:17:12.816Z,20.30
2022-09-12T08:19:40.795Z,20.50
2022-09-12T08:22:08.836Z,20.60
2022-09-12T08:24:36.924Z,20.90
2022-09-12T08:27:05.129Z,21.10
2022-09-12T08:29:33.186Z,21.30
2022-09-12T08:32:02.643Z,21.50
2022-09-12T08:34:30.667Z,21.60
2022-09-12T08:36:58.787Z,21.90
2022-09-12T08:39:27.127Z,22.00
2022-09-12T08:42:01.738Z,22.10
2022-09-12T08:44:52.008Z,22.30
2022-09-12T08:47:26.993Z,22.40
2022-09-12T08:50:04.423Z,22.40
2022-09-12T08:52:38.514Z,22.40
2022-09-12T08:55:13.441Z,22.40
2022-09-12T08:57:41.543Z,22.20
2022-09-12T09:00:15.810Z,22.40
2022-09-12T09:03:18.856Z,22.50
2022-09-12T09:05:51.447Z,22.80
2022-09-12T09:08:38.992Z,23.00
2022-09-12T09:11:22.070Z,23.30
2022-09-12T09:14:18.714Z,23.40
2022-09-12T09:16:49.910Z,23.60
2022-09-12T09:19:23.364Z,23.60
2022-09-12T09:21:56.996Z,23.70
2022-09-12T09:24:29.589Z,23.90
2022-09-12T09:27:01.774Z,24.10
2022-09-12T09:29:34.664Z,24.20
2022-09-12T09:32:10.759Z,24.40
2022-09-12T09:34:41.801Z,24.50
2022-09-12T09:37:17.347Z,24.60
2022-09-12T09:40:00.426Z,24.90
2022-09-12T09:42:39.727Z,24.80
2022-09-12T09:45:16.183Z,25.00
2022-09-12T09:47:46.753Z,25.30
2022-09-12T09:50:17.988Z,25.60
2022-09-12T09:52:46.336Z,25.80
2022-09-12T09:55:18.880Z,26.10
2022-09-12T09:57:48.369Z,26.20
2022-09-12T10:00:31.759Z,26.40
2022-09-12T10:03:20.051Z,26.70
2022-09-12T10:05:51.616Z,27.00
2022-09-12T10:08:24.710Z,27.40
2022-09-12T10:10:57.457Z,27.50
2022-09-12T10:13:33.413Z,27.40
2022-09-12T10:16:03.678Z,27.50
2022-09-12T10:18:37.591Z,27.60
2022-09-12T10:21:17.791Z,27.80
2022-09-12T10:23:47.775Z,28.00
2022-09-12T10:26:17.605Z,28.00
2022-09-12T10:28:50.541Z,27.80
2022-09-12T10:31:29.008Z,28.10
2022-09-12T10:33:59.698Z,28.50
2022-09-12T10:36:38.649Z,28.40
2022-09-12T10:39:08.118Z,28.60
2022-09-12T10:41:38.586Z,28.80
2022-09-12T10:44:15.644Z,28.80
2022-09-12T10:46:44.271Z,28.90
2022-09-12T10:49:24.969Z,28.70
2022-09-12T10:51:55.782Z,28.70
2022-09-12T10:54:26.402Z,28.90
2022-09-12T10:57:22.528Z,29.40
2022-09-12T11:00:05.343Z,29.70
2022-09-12T11:02:47.510Z,29.80
2022-09-12T11:05:23.822Z,29.70
2022-09-12T11:08:01.324Z,29.70
2022-09-12T11:10:44.438Z,29.80
2022-09-12T11:13:28.087Z,29.90
2022-09-12T11:16:08.101Z,29.70
2022-09-12T11:19:11.054Z,29.70
2022-09-12T11:21:53.670Z,30.00
2022-09-12T11:24:44.471Z,30.20
2022-09-12T11:27:27.295Z,30.50
2022-09-12T11:30:00.041Z,30.70
2022-09-12T11:32:44.383Z,30.50
2022-09-12T11:35:21.348Z,30.30
2022-09-12T11:38:02.428Z,30.50
2022-09-12T11:40:39.077Z,30.60
2022-09-12T11:43:13.523Z,30.70
2022-09-12T11:45:45.216Z,30.90
2022-09-12T11:48:17.401Z,31.00
2022-09-12T11:50:45.413Z,30.90
2022-09-12T11:53:20.378Z,31.00
2022-09-12T11:55:55.111Z,31.20
2022-09-12T11:58:27.168Z,31.50
2022-09-12T12:00:58.865Z,31.70
2022-09-12T12:03:34.237Z,31.50
2022-09-12T12:06:05.883Z,31.70
2022-09-12T12:08:39.517Z,31.60
2022-09-12T12:11:10.320Z,31.90
2022-09-12T12:13:43.437Z,32.00
2022-09-12T12:16:25.624Z,31.80
2022-09-12T12:18:58.804Z,31.70
2022-09-12T12:21:41.331Z,31.30
2022-09-12T12:24:16.568Z,31.00
2022-09-12T12:27:01.172Z,31.00
2022-09-12T12:29:45.783Z,31.20
2022-09-12T12:32:22.972Z,31.60
2022-09-12T12:34:51.143Z,32.00
2022-09-12T12:37:51.986Z,31.50
2022-09-12T12:40:27.162Z,30.70
2022-09-12T12:43:29.384Z,30.70
2022-09-12T12:46:12.588Z,31.10
2022-09-12T12:49:03.139Z,31.50
2022-09-12T12:51:38.196Z,31.70
2022-09-12T12:54:28.275Z,32.10
2022-09-12T12:57:17.611Z,32.50
2022-09-12T12:59:54.561Z,32.70
2022-09-12T13:02:28.245Z,33.00
2022-09-12T13:04:57.092Z,33.10
2022-09-12T13:07:33.734Z,33.10
2022-09-12T13:10:03.327Z,33.40
2022-09-12T13:12:35.331Z,33.40
2022-09-12T13:15:28.634Z,33.40
2022-09-12T13:18:02.434Z,33.60
2022-09-12T13:20:34.164Z,33.10
2022-09-12T13:23:02.344Z,33.50
2022-09-12T13:25:32.343Z,33.60
2022-09-12T13:28:18.654Z,33.70
2022-09-12T13:30:56.045Z,33.90
2022-09-12T13:33:33.241Z,33.60
2022-09-12T13:36:30.285Z,33.60
2022-09-12T13:39:10.387Z,33.70
2022-09-12T13:41:53.867Z,33.30
2022-09-12T13:44:24.805Z,33.50
2022-09-12T13:46:55.115Z,33.30
2022-09-12T13:49:30.703Z,33.10
2022-09-12T13:52:03.051Z,33.40
2022-09-12T13:54:32.952Z,33.30
2022-09-12T13:57:02.660Z,33.40
2022-09-12T13:59:39.749Z,33.60
2022-09-12T14:02:20.933Z,33.60
2022-09-12T14:05:07.200Z,33.50
2022-09-12T14:07:36.162Z,33.20
2022-09-12T14:10:05.954Z,33.10
2022-09-12T14:12:40.261Z,32.90
2022-09-12T14:15:17.272Z,32.80
2022-09-12T14:17:52.793Z,33.10
2022-09-12T14:20:23.321Z,33.40
2022-09-12T14:22:53.084Z,33.50
2022-09-12T14:25:23.679Z,33.60
2022-09-12T14:27:54.271Z,33.90
2022-09-12T14:30:25.837Z,34.00
2022-09-12T14:33:19.864Z,33.60
2022-09-12T14:35:50.027Z,33.00
2022-09-12T14:38:26.603Z,32.90
2022-09-12T14:41:02.059Z,32.50
2022-09-12T14:43:32.151Z,32.40
2022-09-12T14:46:03.054Z,32.30
2022-09-12T14:48:36.421Z,32.30
2022-09-12T14:51:05.994Z,32.00
2022-09-12T14:53:36.213Z,31.50
2022-09-12T14:56:10.048Z,31.40
2022-09-12T14:58:39.434Z,31.10
2022-09-12T15:01:24.227Z,30.90
2022-09-12T15:03:56.542Z,30.90
2022-09-12T15:06:29.531Z,30.70
2022-09-12T15:09:00.409Z,30.50
2022-09-12T15:11:28.672Z,30.50
2022-09-12T15:13:56.759Z,30.60
2022-09-12T15:16:24.886Z,30.40
2022-09-12T15:18:54.324Z,30.10
2022-09-12T15:21:22.805Z,29.80
2022-09-12T15:23:52.289Z,29.80
2022-09-12T15:26:22.870Z,29.60
2022-09-12T15:28:52.166Z,29.60
2022-09-12T15:31:25.857Z,29.70
2022-09-12T15:33:57.131Z,29.60
2022-09-12T15:36:26.094Z,29.60
2022-09-12T15:38:54.600Z,29.70
2022-09-12T15:41:24.430Z,29.70
2022-09-12T15:43:52.722Z,29.70
2022-09-12T15:46:21.546Z,29.60
2022-09-12T15:48:50.110Z,29.70
2022-09-12T15:51:21.427Z,29.60
2022-09-12T15:53:50.931Z,29.60
2022-09-12T15:56:21.217Z,29.60
2022-09-12T15:58:58.702Z,29.50
2022-09-12T16:01:28.447Z,29.40
2022-09-12T16:03:56.873Z,29.30
2022-09-12T16:06:27.688Z,29.20
2022-09-12T16:08:55.762Z,29.10
2022-09-12T16:11:26.246Z,29.00
2022-09-12T16:13:55.016Z,28.90
2022-09-12T16:16:23.150Z,28.80
2022-09-12T16:18:51.453Z,28.80
2022-09-12T16:21:19.650Z,28.70
2022-09-12T16:23:49.675Z,28.70
2022-09-12T16:26:18.724Z,28.60
2022-09-12T16:28:47.098Z,28.60
2022-09-12T16:31:15.569Z,28.50
2022-09-12T16:33:43.751Z,28.40
2022-09-12T16:36:14.100Z,28.30
2022-09-12T16:38:42.920Z,28.20
2022-09-12T16:41:12.969Z,28.20
2022-09-12T16:43:41.637Z,28.10
2022-09-12T16:46:11.480Z,28.10
2022-09-12T16:48:45.862Z,28.00
2022-09-12T16:51:17.680Z,28.00
2022-09-12T16:53:45.884Z,28.00
2022-09-12T16:56:15.427Z,27.90
2022-09-12T16:58:43.985Z,27.90
2022-09-12T17:01:13.895Z,27.80
2022-09-12T17:03:42.176Z,27.70
2022-09-12T17:06:12.053Z,27.70
2022-09-12T17:08:42.659Z,27.60
2022-09-12T17:11:12.421Z,27.60
2022-09-12T17:14:03.262Z,27.50
2022-09-12T17:16:31.372Z,27.50
2022-09-12T17:18:59.538Z,27.50
2022-09-12T17:21:27.855Z,27.40
2022-09-12T17:23:56.201Z,27.30
2022-09-12T17:26:24.328Z,27.20
2022-09-12T17:28:53.827Z,27.10
2022-09-12T17:31:21.925Z,27.10
2022-09-12T17:33:50.520Z,27.10
2022-09-12T17:36:19.510Z,27.10
2022-09-12T17:38:48.178Z,27.00
2022-09-12T17:41:18.113Z,26.90
2022-09-12T17:43:46.812Z,27.00
2022-09-12T17:46:16.362Z,27.00
2022-09-12T17:48:44.473Z,26.90
2022-09-12T17:51:14.848Z,26.80
2022-09-12T17:53:43.758Z,26.70
2022-09-12T17:56:12.486Z,26.60
2022-09-12T17:58:40.763Z,26.50
2022-09-12T18:01:30.931Z,26.40
2022-09-12T18:04:02.026Z,26.30
2022-09-12T18:06:30.687Z,26.30
2022-09-12T18:09:01.817Z,26.30
2022-09-12T18:11:30.345Z,26.20
2022-09-12T18:13:59.372Z,26.10
2022-09-12T18:16:28.254Z,25.90
2022-09-12T18:18:56.617Z,26.00
2022-09-12T18:21:26.057Z,25.90
2022-09-12T18:23:54.405Z,25.90
2022-09-12T18:26:22.666Z,25.70
2022-09-12T18:28:50.736Z,25.60
2022-09-12T18:31:21.890Z,25.50
2022-09-12T18:33:49.916Z,25.40
2022-09-12T18:36:19.334Z,25.30
2022-09-12T18:38:49.599Z,25.20
2022-09-12T18:41:19.621Z,25.10
2022-09-12T18:43:48.503Z,25.10
2022-09-12T18:46:18.471Z,25.00
2022-09-12T18:48:47.107Z,24.90
2022-09-12T18:51:16.764Z,24.90
2022-09-12T18:53:52.097Z,24.80
2022-09-12T18:56:21.071Z,24.70
2022-09-12T18:58:52.442Z,24.60
2022-09-12T19:01:22.713Z,24.50
2022-09-12T19:03:51.028Z,24.50
2022-09-12T19:06:20.894Z,24.50
2022-09-12T19:08:50.946Z,24.30
2022-09-12T19:11:19.616Z,24.30
2022-09-12T19:13:49.873Z,24.20
2022-09-12T19:16:20.437Z,24.20
2022-09-12T19:18:49.730Z,24.10
2022-09-12T19:21:19.503Z,24.00
2022-09-12T19:23:47.687Z,24.00
2022-09-12T19:26:18.343Z,23.90
2022-09-12T19:28:46.659Z,23.80
2022-09-12T19:31:16.685Z,23.80
2022-09-12T19:33:44.850Z,23.80
2022-09-12T19:36:40.816Z,23.70
2022-09-12T19:39:03.343Z,23.70
2022-09-12T19:41:32.796Z,23.70
2022-09-12T19:44:01.440Z,23.70
2022-09-12T19:46:29.642Z,23.60
